Time,TemperatureF,DewpointF,PressureIn,WindDirection,WindDirectionDegrees,WindSpeedMPH,WindSpeedGustMPH,Humidity,HourlyPrecipIn,Conditions,Clouds,dailyrainin,SoftwareType,DateUTC
2013-08-16 00:01:00,68.0,63.3,30.04,SSW,198,1.0,1.0,85,0.00,,,0.00,Wunderground v.1.15,2013-08-16 04:01:00,
2013-08-16 00:02:00,67.9,63.2,30.04,SSW,197,1.0,1.0,85,0.00,,,0.00,Wunderground v.1.15,2013-08-16 04:02:00,
2013-08-16 00:03:00,67.9,63.2,30.04,SSW,203,1.0,1.0,85,0.00,,,0.00,Wunderground v.1.15,2013-08-16 04:03:00,
2013-08-16 00:05:00,67.9,63.2,30.04,SSW,200,1.0,1.0,85,0.00,,,0.00,Wunderground v.1.15,2013-08-16 04:05:00,
2013-08-16 00:08:00,67.9,62.9,30.04,South,188,1.0,1.0,84,0.00,,,0.00,Wunderground v.1.15,2013-08-16 04:08:00,
2013-08-16 00:13:00,67.8,62.8,30.04,SSW,197,1.0,1.0,84,0.00,,,0.00,Wunderground v.1.15,2013-08-16 04:13:00,
2013-08-16 00:19:00,67.9,62.5,30.04,South,190,1.0,1.0,83,0.00,,,0.00,Wunderground v.1.15,2013-08-16 04:19:00,
2013-08-16 00:24:00,68.0,62.6,30.04,SSW,192,1.0,2.0,83,0.00,,,0.00,Wunderground v.1.15,2013-08-16 04:24:00,
2013-08-16 00:29:00,67.9,62.5,30.04,SSW,210,1.0,1.0,83,0.00,,,0.00,Wunderground v.1.15,2013-08-16 04:29:00,
2013-08-16 00:34:00,67.9,62.5,30.04,SSW,199,1.0,1.0,83,0.00,,,0.00,Wunderground v.1.15,2013-08-16 04:34:00,
2013-08-16 00:39:00,67.9,62.5,30.04,SSW,196,0.0,2.0,83,0.00,,,0.00,Wunderground v.1.15,2013-08-16 04:39:00,
2013-08-16 00:45:00,67.7,62.0,30.04,SSW,202,1.0,2.0,82,0.00,,,0.00,Wunderground v.1.15,2013-08-16 04:45:00,
2013-08-16 00:50:00,67.5,62.5,30.04,SSW,207,1.0,2.0,84,0.00,,,0.00,Wunderground v.1.15,2013-08-16 04:50:00,
2013-08-16 00:55:00,66.9,62.6,30.04,SSW,209,1.0,2.0,86,0.00,,,0.00,Wunderground v.1.15,2013-08-16 04:55:00,
2013-08-16 01:00:00,66.7,62.4,30.04,SW,217,1.0,1.0,86,0.00,,,0.00,Wunderground v.1.15,2013-08-16 05:00:00,
2013-08-16 01:05:00,66.2,62.5,30.04,SSW,203,0.0,1.0,88,0.00,,,0.00,Wunderground v.1.15,2013-08-16 05:05:00,
2013-08-16 01:11:00,66.0,62.3,30.04,SSW,193,2.0,2.0,88,0.00,,,0.00,Wunderground v.1.15,2013-08-16 05:11:00,
2013-08-16 01:16:00,66.1,62.1,30.04,SSW,201,1.0,1.0,87,0.00,,,0.00,Wunderground v.1.15,2013-08-16 05:16:00,
2013-08-16 01:21:00,65.9,61.6,30.04,SW,229,2.0,2.0,86,0.00,,,0.00,Wunderground v.1.15,2013-08-16 05:21:00,
2013-08-16 01:26:00,66.0,61.4,30.04,SW,229,2.0,2.0,85,0.00,,,0.00,Wunderground v.1.15,2013-08-16 05:26:00,
2013-08-16 01:31:00,66.1,61.1,30.04,SW,223,2.0,2.0,84,0.00,,,0.00,Wunderground v.1.15,2013-08-16 05:31:00,
2013-08-16 01:36:00,66.2,60.9,30.04,SSW,212,1.0,1.0,83,0.00,,,0.00,Wunderground v.1.15,2013-08-16 05:36:00,
2013-08-16 01:41:00,66.3,61.0,30.04,SW,223,1.0,1.0,83,0.00,,,0.00,Wunderground v.1.15,2013-08-16 05:41:00,
2013-08-16 01:47:00,66.2,60.5,30.04,SW,214,0.0,2.0,82,0.00,,,0.00,Wunderground v.1.15,2013-08-16 05:47:00,
2013-08-16 01:52:00,66.2,60.9,30.04,SSW,203,1.0,3.0,83,0.00,,,0.00,Wunderground v.1.15,2013-08-16 05:52:00,
2013-08-16 01:57:00,66.0,61.0,30.03,SSW,213,1.0,1.0,84,0.00,,,0.00,Wunderground v.1.15,2013-08-16 05:57:00,
2013-08-16 02:02:00,65.8,60.8,30.03,SSW,210,2.0,2.0,84,0.00,,,0.00,Wunderground v.1.15,2013-08-16 06:02:00,
2013-08-16 02:07:00,65.6,61.0,30.03,SSW,196,1.0,2.0,85,0.00,,,0.00,Wunderground v.1.15,2013-08-16 06:07:00,
2013-08-16 02:12:00,65.4,61.1,30.03,SSW,202,1.0,2.0,86,0.00,,,0.00,Wunderground v.1.15,2013-08-16 06:12:00,
2013-08-16 02:17:00,65.3,61.0,30.03,South,183,0.0,1.0,86,0.00,,,0.00,Wunderground v.1.15,2013-08-16 06:17:00,
2013-08-16 02:22:00,65.1,61.1,30.02,South,183,0.0,1.0,87,0.00,,,0.00,Wunderground v.1.15,2013-08-16 06:22:00,
2013-08-16 02:27:00,64.9,61.9,30.02,South,182,0.0,1.0,90,0.00,,,0.00,Wunderground v.1.15,2013-08-16 06:27:00,
2013-08-16 02:32:00,64.5,61.2,30.02,SSW,202,1.0,1.0,89,0.00,,,0.00,Wunderground v.1.15,2013-08-16 06:32:00,
2013-08-16 02:37:00,64.5,60.5,30.02,SSW,205,0.0,1.0,87,0.00,,,0.00,Wunderground v.1.15,2013-08-16 06:37:00,
2013-08-16 02:42:00,64.6,60.6,30.02,SW,232,0.0,1.0,87,0.00,,,0.00,Wunderground v.1.15,2013-08-16 06:42:00,
2013-08-16 02:47:00,64.6,60.6,30.02,SW,231,0.0,0.0,87,0.00,,,0.00,Wunderground v.1.15,2013-08-16 06:47:00,
2013-08-16 02:52:00,64.7,60.4,30.01,SW,221,0.0,1.0,86,0.00,,,0.00,Wunderground v.1.15,2013-08-16 06:52:00,
2013-08-16 02:57:00,64.8,60.2,30.01,WSW,250,0.0,0.0,85,0.00,,,0.00,Wunderground v.1.15,2013-08-16 06:57:00,
2013-08-16 03:02:00,64.9,59.9,30.01,WSW,251,0.0,1.0,84,0.00,,,0.00,Wunderground v.1.15,2013-08-16 07:02:00,
2013-08-16 03:07:00,64.8,60.8,30.01,WSW,251,0.0,0.0,87,0.00,,,0.00,Wunderground v.1.15,2013-08-16 07:07:00,
2013-08-16 03:12:00,64.6,60.6,30.01,WSW,251,0.0,1.0,87,0.00,,,0.00,Wunderground v.1.15,2013-08-16 07:12:00,
2013-08-16 03:17:00,64.5,61.2,30.01,NW,311,0.0,1.0,89,0.00,,,0.00,Wunderground v.1.15,2013-08-16 07:17:00,
2013-08-16 03:22:00,64.3,61.0,30.01,North,352,0.0,1.0,89,0.00,,,0.00,Wunderground v.1.15,2013-08-16 07:22:00,
2013-08-16 03:27:00,64.1,59.5,30.01,North,354,0.0,0.0,85,0.00,,,0.00,Wunderground v.1.15,2013-08-16 07:27:00,
2013-08-16 03:32:00,64.2,59.9,30.01,West,280,0.0,1.0,86,0.00,,,0.00,Wunderground v.1.15,2013-08-16 07:32:00,
2013-08-16 03:37:00,64.3,59.4,30.01,West,280,0.0,0.0,84,0.00,,,0.00,Wunderground v.1.15,2013-08-16 07:37:00,
2013-08-16 03:42:00,64.4,59.8,30.01,West,272,1.0,3.0,85,0.00,,,0.00,Wunderground v.1.15,2013-08-16 07:42:00,
2013-08-16 03:47:00,64.4,59.8,30.01,West,272,1.0,2.0,85,0.00,,,0.00,Wunderground v.1.15,2013-08-16 07:47:00,
2013-08-16 03:52:00,64.2,60.2,30.01,NW,306,0.0,2.0,87,0.00,,,0.00,Wunderground v.1.15,2013-08-16 07:52:00,
2013-08-16 03:57:00,64.1,59.8,30.01,West,276,0.0,1.0,86,0.00,,,0.00,Wunderground v.1.15,2013-08-16 07:57:00,
2013-08-16 04:02:00,64.1,59.8,30.01,West,276,0.0,1.0,86,0.00,,,0.00,Wunderground v.1.15,2013-08-16 08:02:00,
2013-08-16 04:07:00,63.9,60.9,30.01,West,276,0.0,1.0,90,0.00,,,0.00,Wunderground v.1.15,2013-08-16 08:07:00,
2013-08-16 04:12:00,63.5,60.8,30.01,West,276,0.0,1.0,91,0.00,,,0.00,Wunderground v.1.15,2013-08-16 08:12:00,
2013-08-16 04:17:00,63.3,60.9,30.01,West,277,0.0,0.0,92,0.00,,,0.00,Wunderground v.1.15,2013-08-16 08:17:00,
2013-08-16 04:22:00,63.2,61.1,30.01,West,277,0.0,0.0,93,0.00,,,0.00,Wunderground v.1.15,2013-08-16 08:22:00,
2013-08-16 04:27:00,63.0,61.2,30.02,West,277,0.0,1.0,94,0.00,,,0.00,Wunderground v.1.15,2013-08-16 08:27:00,
2013-08-16 04:32:00,62.9,61.1,30.02,NW,324,0.0,1.0,94,0.00,,,0.00,Wunderground v.1.15,2013-08-16 08:32:00,
2013-08-16 04:37:00,62.8,61.3,30.02,NW,324,0.0,0.0,95,0.00,,,0.00,Wunderground v.1.15,2013-08-16 08:37:00,
2013-08-16 04:42:00,62.7,60.9,30.02,NW,324,0.0,0.0,94,0.00,,,0.00,Wunderground v.1.15,2013-08-16 08:42:00,
2013-08-16 04:47:00,62.6,61.1,30.02,North,354,1.0,1.0,95,0.00,,,0.00,Wunderground v.1.15,2013-08-16 08:47:00,
2013-08-16 04:52:00,62.8,61.6,30.02,North,1,0.0,1.0,96,0.00,,,0.00,Wunderground v.1.15,2013-08-16 08:52:00,
2013-08-16 04:57:00,62.6,61.1,30.02,North,1,0.0,0.0,95,0.00,,,0.00,Wunderground v.1.15,2013-08-16 08:57:00,
2013-08-16 05:02:00,62.4,60.9,30.03,North,1,0.0,0.0,95,0.00,,,0.00,Wunderground v.1.15,2013-08-16 09:02:00,
2013-08-16 05:07:00,62.5,61.3,30.03,North,1,0.0,1.0,96,0.00,,,0.00,Wunderground v.1.15,2013-08-16 09:07:00,
2013-08-16 05:12:00,62.5,61.3,30.02,North,1,0.0,1.0,96,0.00,,,0.00,Wunderground v.1.15,2013-08-16 09:12:00,
2013-08-16 05:17:00,62.2,60.8,30.02,North,1,0.0,0.0,95,0.00,,,0.00,Wunderground v.1.15,2013-08-16 09:17:00,
2013-08-16 05:22:00,62.0,60.6,30.02,North,1,0.0,0.0,95,0.00,,,0.00,Wunderground v.1.15,2013-08-16 09:22:00,
2013-08-16 05:27:00,62.0,60.8,30.02,North,1,0.0,0.0,96,0.00,,,0.00,Wunderground v.1.15,2013-08-16 09:27:00,
2013-08-16 05:32:00,61.9,60.7,30.03,North,1,0.0,0.0,96,0.00,,,0.00,Wunderground v.1.15,2013-08-16 09:32:00,
2013-08-16 05:37:00,61.8,60.6,30.03,North,1,0.0,0.0,96,0.00,,,0.00,Wunderground v.1.15,2013-08-16 09:37:00,
2013-08-16 05:42:00,61.8,60.6,30.03,North,1,0.0,0.0,96,0.00,,,0.00,Wunderground v.1.15,2013-08-16 09:42:00,
2013-08-16 05:47:00,61.8,60.6,30.03,North,1,0.0,0.0,96,0.00,,,0.00,Wunderground v.1.15,2013-08-16 09:47:00,
2013-08-16 05:52:00,61.9,60.7,30.03,North,1,0.0,0.0,96,0.00,,,0.00,Wunderground v.1.15,2013-08-16 09:52:00,
2013-08-16 05:57:00,62.0,60.8,30.03,North,1,0.0,0.0,96,0.00,,,0.00,Wunderground v.1.15,2013-08-16 09:57:00,
2013-08-16 06:02:00,62.2,60.8,30.03,NNE,24,0.0,0.0,95,0.00,,,0.00,Wunderground v.1.15,2013-08-16 10:02:00,
2013-08-16 06:07:00,62.2,60.8,30.03,NNE,24,0.0,0.0,95,0.00,,,0.00,Wunderground v.1.15,2013-08-16 10:07:00,
2013-08-16 06:12:00,62.3,60.8,30.03,NE,39,0.0,2.0,95,0.00,,,0.00,Wunderground v.1.15,2013-08-16 10:12:00,
2013-08-16 06:17:00,62.4,61.2,30.03,NNE,20,0.0,1.0,96,0.00,,,0.00,Wunderground v.1.15,2013-08-16 10:17:00,
2013-08-16 06:22:00,62.4,61.2,30.03,NNE,16,0.0,1.0,96,0.00,,,0.00,Wunderground v.1.15,2013-08-16 10:22:00,
2013-08-16 06:27:00,62.5,61.3,30.03,North,11,0.0,1.0,96,0.00,,,0.00,Wunderground v.1.15,2013-08-16 10:27:00,
2013-08-16 06:32:00,62.4,61.2,30.03,NNE,29,1.0,3.0,96,0.00,,,0.00,Wunderground v.1.15,2013-08-16 10:32:00,
2013-08-16 06:37:00,62.6,60.8,30.03,North,1,3.0,3.0,94,0.00,,,0.00,Wunderground v.1.15,2013-08-16 10:37:00,
2013-08-16 06:42:00,62.6,60.8,30.03,North,352,2.0,3.0,94,0.00,,,0.00,Wunderground v.1.15,2013-08-16 10:42:00,
2013-08-16 06:47:00,62.4,60.7,30.03,NNW,348,1.0,2.0,94,0.00,,,0.00,Wunderground v.1.15,2013-08-16 10:47:00,
2013-08-16 06:52:00,62.5,61.0,30.04,North,360,2.0,2.0,95,0.00,,,0.00,Wunderground v.1.15,2013-08-16 10:52:00,
2013-08-16 06:57:00,62.7,60.9,30.04,North,3,3.0,3.0,94,0.00,,,0.00,Wunderground v.1.15,2013-08-16 10:57:00,
2013-08-16 07:02:00,63.0,60.9,30.04,North,11,2.0,4.0,93,0.00,,,0.00,Wunderground v.1.15,2013-08-16 11:02:00,
2013-08-16 07:07:00,63.1,61.3,30.04,North,359,1.0,2.0,94,0.00,,,0.00,Wunderground v.1.15,2013-08-16 11:07:00,
2013-08-16 07:12:00,63.0,61.2,30.04,North,360,1.0,3.0,94,0.00,,,0.00,Wunderground v.1.15,2013-08-16 11:12:00,
2013-08-16 07:17:00,63.0,61.2,30.04,NNE,23,0.0,3.0,94,0.00,,,0.00,Wunderground v.1.15,2013-08-16 11:17:00,
2013-08-16 07:22:00,63.1,61.3,30.04,NNE,19,2.0,3.0,94,0.00,,,0.00,Wunderground v.1.15,2013-08-16 11:22:00,
2013-08-16 07:27:00,63.3,61.5,30.04,NNE,21,0.0,1.0,94,0.00,,,0.00,Wunderground v.1.15,2013-08-16 11:27:00,
2013-08-16 07:32:00,63.4,61.6,30.04,North,8,0.0,1.0,94,0.00,,,0.00,Wunderground v.1.15,2013-08-16 11:32:00,
2013-08-16 07:37:00,63.6,61.8,30.04,North,11,1.0,2.0,94,0.00,,,0.00,Wunderground v.1.15,2013-08-16 11:37:00,
2013-08-16 07:42:00,63.6,61.8,30.05,North,4,4.0,4.0,94,0.00,,,0.00,Wunderground v.1.15,2013-08-16 11:42:00,
2013-08-16 07:47:00,63.7,61.6,30.04,North,8,3.0,3.0,93,0.00,,,0.00,Wunderground v.1.15,2013-08-16 11:47:00,
2013-08-16 07:52:00,63.8,61.7,30.04,NNW,342,1.0,4.0,93,0.00,,,0.00,Wunderground v.1.15,2013-08-16 11:52:00,
2013-08-16 07:57:00,64.0,61.9,30.04,North,358,0.0,2.0,93,0.00,,,0.00,Wunderground v.1.15,2013-08-16 11:57:00,
2013-08-16 08:02:00,64.1,62.0,30.04,North,7,0.0,2.0,93,0.00,,,0.00,Wunderground v.1.15,2013-08-16 12:02:00,
2013-08-16 08:07:00,64.2,62.1,30.04,North,7,0.0,0.0,93,0.00,,,0.00,Wunderground v.1.15,2013-08-16 12:07:00,
2013-08-16 08:12:00,64.4,62.3,30.04,NNE,31,0.0,2.0,93,0.00,,,0.00,Wunderground v.1.15,2013-08-16 12:12:00,
2013-08-16 08:17:00,64.5,62.1,30.04,North,354,1.0,1.0,92,0.00,,,0.00,Wunderground v.1.15,2013-08-16 12:17:00,
2013-08-16 08:22:00,64.7,62.0,30.04,North,8,1.0,4.0,91,0.00,,,0.00,Wunderground v.1.15,2013-08-16 12:22:00,
2013-08-16 08:27:00,64.9,61.9,30.04,ENE,75,0.0,1.0,90,0.00,,,0.00,Wunderground v.1.15,2013-08-16 12:27:00,
2013-08-16 08:32:00,65.1,61.8,30.05,North,9,0.0,1.0,89,0.00,,,0.00,Wunderground v.1.15,2013-08-16 12:32:00,
2013-08-16 08:37:00,65.3,61.3,30.05,NE,34,0.0,0.0,87,0.00,,,0.00,Wunderground v.1.15,2013-08-16 12:37:00,
2013-08-16 08:42:00,65.6,61.9,30.05,NNE,32,0.0,1.0,88,0.00,,,0.00,Wunderground v.1.15,2013-08-16 12:42:00,
2013-08-16 08:47:00,65.8,61.8,30.05,NE,34,0.0,1.0,87,0.00,,,0.00,Wunderground v.1.15,2013-08-16 12:47:00,
2013-08-16 08:52:00,66.3,62.0,30.05,NE,36,0.0,1.0,86,0.00,,,0.00,Wunderground v.1.15,2013-08-16 12:52:00,
2013-08-16 08:57:00,67.1,62.4,30.05,East,100,0.0,0.0,85,0.00,,,0.00,Wunderground v.1.15,2013-08-16 12:57:00,
2013-08-16 09:02:00,67.5,61.8,30.05,ESE,115,1.0,2.0,82,0.00,,,0.00,Wunderground v.1.15,2013-08-16 13:02:00,
2013-08-16 09:07:00,67.6,61.9,30.05,ESE,117,1.0,2.0,82,0.00,,,0.00,Wunderground v.1.15,2013-08-16 13:07:00,
2013-08-16 09:12:00,67.8,61.8,30.05,ESE,119,0.0,3.0,81,0.00,,,0.00,Wunderground v.1.15,2013-08-16 13:12:00,
2013-08-16 09:17:00,68.1,62.0,30.05,ESE,119,1.0,3.0,81,0.00,,,0.00,Wunderground v.1.15,2013-08-16 13:17:00,
2013-08-16 09:22:00,68.0,61.2,30.05,ESE,121,3.0,4.0,79,0.00,,,0.00,Wunderground v.1.15,2013-08-16 13:22:00,
2013-08-16 09:27:00,67.8,61.0,30.05,East,99,2.0,5.0,79,0.00,,,0.00,Wunderground v.1.15,2013-08-16 13:27:00,
2013-08-16 09:32:00,67.8,61.0,30.05,East,86,0.0,5.0,79,0.00,,,0.00,Wunderground v.1.15,2013-08-16 13:32:00,
2013-08-16 09:37:00,68.1,61.3,30.06,SE,125,0.0,2.0,79,0.00,,,0.00,Wunderground v.1.15,2013-08-16 13:37:00,
2013-08-16 09:42:00,68.2,61.1,30.06,ENE,71,0.0,2.0,78,0.00,,,0.00,Wunderground v.1.15,2013-08-16 13:42:00,
2013-08-16 09:47:00,68.2,60.7,30.06,ESE,112,0.0,1.0,77,0.00,,,0.00,Wunderground v.1.15,2013-08-16 13:47:00,
2013-08-16 09:52:00,68.3,60.8,30.06,East,100,1.0,2.0,77,0.00,,,0.00,Wunderground v.1.15,2013-08-16 13:52:00,
2013-08-16 09:57:00,68.6,61.1,30.06,ENE,64,0.0,1.0,77,0.00,,,0.00,Wunderground v.1.15,2013-08-16 13:57:00,
2013-08-16 10:02:00,69.3,60.7,30.06,NNW,338,0.0,1.0,74,0.00,,,0.00,Wunderground v.1.15,2013-08-16 14:02:00,
2013-08-16 10:07:00,69.9,60.1,30.06,East,80,0.0,0.0,71,0.00,,,0.00,Wunderground v.1.15,2013-08-16 14:07:00,
2013-08-16 10:12:00,70.2,60.4,30.06,NE,46,0.0,1.0,71,0.00,,,0.00,Wunderground v.1.15,2013-08-16 14:12:00,
2013-08-16 10:17:00,70.3,59.6,30.06,North,360,0.0,1.0,69,0.00,,,0.00,Wunderground v.1.15,2013-08-16 14:17:00,
2013-08-16 10:22:00,70.6,60.3,30.06,ESE,108,0.0,1.0,70,0.00,,,0.00,Wunderground v.1.15,2013-08-16 14:22:00,
2013-08-16 10:27:00,70.6,60.7,30.06,NNE,15,0.0,2.0,71,0.00,,,0.00,Wunderground v.1.15,2013-08-16 14:27:00,
2013-08-16 10:32:00,70.8,60.9,30.07,WSW,242,0.0,2.0,71,0.00,,,0.00,Wunderground v.1.15,2013-08-16 14:32:00,
2013-08-16 10:37:00,71.1,61.2,30.07,ESE,108,0.0,0.0,71,0.00,,,0.00,Wunderground v.1.15,2013-08-16 14:37:00,
2013-08-16 10:42:00,71.1,59.2,30.07,East,98,2.0,2.0,66,0.00,,,0.00,Wunderground v.1.15,2013-08-16 14:42:00,
2013-08-16 10:47:00,70.6,59.9,30.07,ESE,112,4.0,4.0,69,0.00,,,0.00,Wunderground v.1.15,2013-08-16 14:47:00,
2013-08-16 10:52:00,70.3,60.4,30.07,ESE,120,0.0,4.0,71,0.00,,,0.00,Wunderground v.1.15,2013-08-16 14:52:00,
2013-08-16 10:57:00,70.2,60.7,30.07,ESE,113,4.0,4.0,72,0.00,,,0.00,Wunderground v.1.15,2013-08-16 14:57:00,
2013-08-16 11:02:00,70.3,60.8,30.07,East,96,2.0,5.0,72,0.00,,,0.00,Wunderground v.1.15,2013-08-16 15:02:00,
2013-08-16 11:07:00,70.6,61.1,30.07,ESE,106,2.0,3.0,72,0.00,,,0.00,Wunderground v.1.15,2013-08-16 15:07:00,
2013-08-16 11:12:00,70.9,61.0,30.07,East,86,1.0,4.0,71,0.00,,,0.00,Wunderground v.1.15,2013-08-16 15:12:00,
2013-08-16 11:17:00,71.5,60.8,30.07,SE,136,3.0,4.0,69,0.00,,,0.00,Wunderground v.1.15,2013-08-16 15:17:00,
2013-08-16 11:22:00,71.6,60.1,30.07,ESE,119,3.0,7.0,67,0.00,,,0.00,Wunderground v.1.15,2013-08-16 15:22:00,
2013-08-16 11:27:00,71.8,60.2,30.06,East,98,0.0,3.0,67,0.00,,,0.00,Wunderground v.1.15,2013-08-16 15:27:00,
2013-08-16 11:32:00,72.0,59.6,30.06,East,79,7.0,8.0,65,0.00,,,0.00,Wunderground v.1.15,2013-08-16 15:32:00,
2013-08-16 11:37:00,71.7,59.7,30.06,ENE,70,1.0,5.0,66,0.00,,,0.00,Wunderground v.1.15,2013-08-16 15:37:00,
2013-08-16 11:42:00,72.0,59.2,30.06,SE,139,1.0,7.0,64,0.00,,,0.00,Wunderground v.1.15,2013-08-16 15:42:00,
2013-08-16 11:47:00,72.4,60.0,30.06,SE,124,6.0,6.0,65,0.00,,,0.00,Wunderground v.1.15,2013-08-16 15:47:00,
2013-08-16 11:52:00,72.2,59.8,30.06,ESE,119,4.0,8.0,65,0.00,,,0.00,Wunderground v.1.15,2013-08-16 15:52:00,
2013-08-16 11:57:00,72.4,60.0,30.06,SE,134,2.0,4.0,65,0.00,,,0.00,Wunderground v.1.15,2013-08-16 15:57:00,
2013-08-16 12:02:00,72.6,60.2,30.06,ESE,105,5.0,7.0,65,0.00,,,0.00,Wunderground v.1.15,2013-08-16 16:02:00,
2013-08-16 12:07:00,72.2,59.3,30.06,SE,141,3.0,7.0,64,0.00,,,0.00,Wunderground v.1.15,2013-08-16 16:07:00,
2013-08-16 12:12:00,72.4,60.0,30.06,ESE,122,3.0,7.0,65,0.00,,,0.00,Wunderground v.1.15,2013-08-16 16:12:00,
2013-08-16 12:17:00,72.4,59.5,30.06,SSE,148,1.0,4.0,64,0.00,,,0.00,Wunderground v.1.15,2013-08-16 16:17:00,
2013-08-16 12:22:00,72.6,59.3,30.06,ESE,115,4.0,10.0,63,0.00,,,0.00,Wunderground v.1.15,2013-08-16 16:22:00,
2013-08-16 12:27:00,72.9,60.0,30.06,SE,128,5.0,7.0,64,0.00,,,0.00,Wunderground v.1.15,2013-08-16 16:27:00,
2013-08-16 12:32:00,72.8,59.5,30.06,ESE,109,5.0,9.0,63,0.00,,,0.00,Wunderground v.1.15,2013-08-16 16:32:00,
2013-08-16 12:37:00,72.6,59.7,30.06,ESE,113,5.0,9.0,64,0.00,,,0.00,Wunderground v.1.15,2013-08-16 16:37:00,
2013-08-16 12:42:00,72.5,60.1,30.06,SE,143,6.0,9.0,65,0.00,,,0.00,Wunderground v.1.15,2013-08-16 16:42:00,
2013-08-16 12:47:00,72.0,59.6,30.06,ESE,118,4.0,6.0,65,0.00,,,0.00,Wunderground v.1.15,2013-08-16 16:47:00,
2013-08-16 12:52:00,72.0,59.2,30.06,SE,134,5.0,8.0,64,0.00,,,0.00,Wunderground v.1.15,2013-08-16 16:52:00,
2013-08-16 12:57:00,72.0,59.6,30.05,ESE,107,6.0,8.0,65,0.00,,,0.00,Wunderground v.1.15,2013-08-16 16:57:00,
2013-08-16 13:02:00,71.9,59.1,30.06,SSE,148,4.0,9.0,64,0.00,,,0.00,Wunderground v.1.15,2013-08-16 17:02:00,
2013-08-16 13:07:00,72.0,60.0,30.06,SE,129,5.0,8.0,66,0.00,,,0.00,Wunderground v.1.15,2013-08-16 17:07:00,
2013-08-16 13:12:00,72.1,60.1,30.06,SE,141,5.0,9.0,66,0.00,,,0.00,Wunderground v.1.15,2013-08-16 17:12:00,
2013-08-16 13:17:00,72.0,59.6,30.06,SE,146,4.0,6.0,65,0.00,,,0.00,Wunderground v.1.15,2013-08-16 17:17:00,
2013-08-16 13:22:00,71.9,59.9,30.06,SSE,168,5.0,7.0,66,0.00,,,0.00,Wunderground v.1.15,2013-08-16 17:22:00,
2013-08-16 13:27:00,71.7,59.3,30.06,SE,132,5.0,8.0,65,0.00,,,0.00,Wunderground v.1.15,2013-08-16 17:27:00,
2013-08-16 13:32:00,71.8,60.2,30.06,SE,141,4.0,8.0,67,0.00,,,0.00,Wunderground v.1.15,2013-08-16 17:32:00,
2013-08-16 13:37:00,72.4,60.4,30.06,SE,141,6.0,10.0,66,0.00,,,0.00,Wunderground v.1.15,2013-08-16 17:37:00,
2013-08-16 13:42:00,72.2,59.8,30.05,SE,142,4.0,10.0,65,0.00,,,0.00,Wunderground v.1.15,2013-08-16 17:42:00,
2013-08-16 13:47:00,72.4,60.4,30.05,SE,135,4.0,6.0,66,0.00,,,0.00,Wunderground v.1.15,2013-08-16 17:47:00,
2013-08-16 13:52:00,72.5,61.3,30.06,SE,143,4.0,7.0,68,0.00,,,0.00,Wunderground v.1.15,2013-08-16 17:52:00,
2013-08-16 13:57:00,72.5,61.3,30.06,SSE,157,4.0,7.0,68,0.00,,,0.00,Wunderground v.1.15,2013-08-16 17:57:00,
2013-08-16 14:02:00,72.9,61.7,30.06,SE,131,5.0,7.0,68,0.00,,,0.00,Wunderground v.1.15,2013-08-16 18:02:00,
2013-08-16 14:07:00,73.1,61.9,30.05,SSE,158,2.0,4.0,68,0.00,,,0.00,Wunderground v.1.15,2013-08-16 18:07:00,
2013-08-16 14:12:00,73.0,61.8,30.05,SSE,148,4.0,7.0,68,0.00,,,0.00,Wunderground v.1.15,2013-08-16 18:12:00,
2013-08-16 14:17:00,73.0,61.8,30.05,SE,146,1.0,4.0,68,0.00,,,0.00,Wunderground v.1.15,2013-08-16 18:17:00,
2013-08-16 14:22:00,73.3,62.1,30.05,SE,137,7.0,7.0,68,0.00,,,0.00,Wunderground v.1.15,2013-08-16 18:22:00,
2013-08-16 14:27:00,73.1,61.9,30.05,SSE,164,4.0,7.0,68,0.00,,,0.00,Wunderground v.1.15,2013-08-16 18:27:00,
2013-08-16 14:32:00,73.1,62.3,30.05,South,188,4.0,7.0,69,0.00,,,0.00,Wunderground v.1.15,2013-08-16 18:32:00,
2013-08-16 14:37:00,73.4,62.6,30.05,SW,215,4.0,5.0,69,0.00,,,0.00,Wunderground v.1.15,2013-08-16 18:37:00,
2013-08-16 14:42:00,73.3,62.5,30.04,SE,141,5.0,5.0,69,0.00,,,0.00,Wunderground v.1.15,2013-08-16 18:42:00,
2013-08-16 14:47:00,73.3,62.9,30.04,SE,139,3.0,7.0,70,0.00,,,0.00,Wunderground v.1.15,2013-08-16 18:47:00,
2013-08-16 14:52:00,73.5,63.1,30.04,SSE,164,3.0,7.0,70,0.00,,,0.00,Wunderground v.1.15,2013-08-16 18:52:00,
2013-08-16 14:57:00,73.5,62.7,30.04,SE,127,5.0,6.0,69,0.00,,,0.00,Wunderground v.1.15,2013-08-16 18:57:00,
2013-08-16 15:02:00,73.3,62.9,30.04,SE,145,4.0,7.0,70,0.00,,,0.00,Wunderground v.1.15,2013-08-16 19:02:00,
2013-08-16 15:07:00,73.1,62.7,30.03,SE,131,3.0,4.0,70,0.00,,,0.00,Wunderground v.1.15,2013-08-16 19:07:00,
2013-08-16 15:12:00,73.7,62.9,30.03,SSE,158,2.0,4.0,69,0.00,,,0.00,Wunderground v.1.15,2013-08-16 19:12:00,
2013-08-16 15:17:00,74.1,63.3,30.03,SSE,150,4.0,4.0,69,0.00,,,0.00,Wunderground v.1.15,2013-08-16 19:17:00,
2013-08-16 15:22:00,74.2,63.4,30.03,SSE,157,2.0,6.0,69,0.00,,,0.00,Wunderground v.1.15,2013-08-16 19:22:00,
2013-08-16 15:27:00,74.2,63.4,30.02,SW,214,4.0,8.0,69,0.00,,,0.00,Wunderground v.1.15,2013-08-16 19:27:00,
2013-08-16 15:32:00,73.9,63.1,30.02,SSW,209,4.0,8.0,69,0.00,,,0.00,Wunderground v.1.15,2013-08-16 19:32:00,
2013-08-16 15:37:00,74.2,63.4,30.02,SSE,164,2.0,6.0,69,0.00,,,0.00,Wunderground v.1.15,2013-08-16 19:37:00,
2013-08-16 15:42:00,74.2,63.4,30.02,South,172,3.0,6.0,69,0.00,,,0.00,Wunderground v.1.15,2013-08-16 19:42:00,
2013-08-16 15:47:00,74.2,63.4,30.02,South,174,4.0,5.0,69,0.00,,,0.00,Wunderground v.1.15,2013-08-16 19:47:00,
2013-08-16 15:52:00,74.1,63.7,30.02,SSE,156,4.0,8.0,70,0.00,,,0.00,Wunderground v.1.15,2013-08-16 19:52:00,
2013-08-16 15:57:00,73.7,63.3,30.02,SSW,210,3.0,6.0,70,0.00,,,0.00,Wunderground v.1.15,2013-08-16 19:57:00,
2013-08-16 16:02:00,73.5,63.5,30.01,SSW,195,4.0,8.0,71,0.00,,,0.00,Wunderground v.1.15,2013-08-16 20:02:00,
2013-08-16 16:07:00,73.4,63.8,30.01,SE,137,5.0,8.0,72,0.00,,,0.00,Wunderground v.1.15,2013-08-16 20:07:00,
2013-08-16 16:12:00,73.3,63.7,30.01,SSE,152,4.0,8.0,72,0.00,,,0.00,Wunderground v.1.15,2013-08-16 20:12:00,
2013-08-16 16:17:00,73.4,63.8,30.01,SSW,203,2.0,4.0,72,0.00,,,0.00,Wunderground v.1.15,2013-08-16 20:17:00,
2013-08-16 16:22:00,73.8,64.2,30.01,South,184,2.0,7.0,72,0.00,,,0.00,Wunderground v.1.15,2013-08-16 20:22:00,
2013-08-16 16:27:00,74.1,63.7,30.01,SW,221,3.0,6.0,70,0.00,,,0.00,Wunderground v.1.15,2013-08-16 20:27:00,
2013-08-16 16:32:00,74.0,64.0,30.01,WSW,237,1.0,6.0,71,0.00,,,0.00,Wunderground v.1.15,2013-08-16 20:32:00,
2013-08-16 16:37:00,74.6,64.2,30.01,SSE,153,1.0,3.0,70,0.00,,,0.00,Wunderground v.1.15,2013-08-16 20:37:00,
2013-08-16 16:42:00,74.9,64.0,30.01,South,187,2.0,7.0,69,0.00,,,0.00,Wunderground v.1.15,2013-08-16 20:42:00,
2013-08-16 16:47:00,74.8,63.9,30.01,SE,128,5.0,6.0,69,0.00,,,0.00,Wunderground v.1.15,2013-08-16 20:47:00,
2013-08-16 16:52:00,74.8,63.9,30.01,SSW,199,5.0,9.0,69,0.00,,,0.00,Wunderground v.1.15,2013-08-16 20:52:00,
2013-08-16 16:57:00,74.5,63.7,30.01,South,183,3.0,8.0,69,0.00,,,0.00,Wunderground v.1.15,2013-08-16 20:57:00,
2013-08-16 17:02:00,74.4,64.0,30.01,SSW,198,2.0,8.0,70,0.00,,,0.00,Wunderground v.1.15,2013-08-16 21:02:00,
2013-08-16 17:08:00,73.7,63.3,30.01,SW,214,4.0,6.0,70,0.00,,,0.00,Wunderground v.1.15,2013-08-16 21:08:00,
2013-08-16 17:13:00,73.7,63.7,30.01,South,188,3.0,6.0,71,0.00,,,0.00,Wunderground v.1.15,2013-08-16 21:13:00,
2013-08-16 17:18:00,73.7,63.7,30.01,South,191,3.0,7.0,71,0.00,,,0.00,Wunderground v.1.15,2013-08-16 21:18:00,
2013-08-16 17:23:00,73.5,63.5,30.01,South,179,6.0,8.0,71,0.00,,,0.00,Wunderground v.1.15,2013-08-16 21:23:00,
2013-08-16 17:28:00,73.3,63.7,30.01,SSW,204,4.0,6.0,72,0.00,,,0.00,Wunderground v.1.15,2013-08-16 21:28:00,
2013-08-16 17:33:00,73.6,64.0,30.02,South,177,1.0,6.0,72,0.00,,,0.00,Wunderground v.1.15,2013-08-16 21:33:00,
2013-08-16 17:38:00,73.6,63.6,30.02,SSE,160,4.0,7.0,71,0.00,,,0.00,Wunderground v.1.15,2013-08-16 21:38:00,
2013-08-16 17:43:00,73.2,63.6,30.02,SW,217,3.0,8.0,72,0.00,,,0.00,Wunderground v.1.15,2013-08-16 21:43:00,
2013-08-16 17:48:00,72.8,62.8,30.02,SSW,196,4.0,6.0,71,0.00,,,0.00,Wunderground v.1.15,2013-08-16 21:48:00,
2013-08-16 17:53:00,72.6,62.7,30.02,South,179,4.0,6.0,71,0.00,,,0.00,Wunderground v.1.15,2013-08-16 21:53:00,
2013-08-16 17:58:00,72.7,63.1,30.01,SSE,154,2.0,5.0,72,0.00,,,0.00,Wunderground v.1.15,2013-08-16 21:58:00,
2013-08-16 18:03:00,72.6,63.1,30.01,South,179,3.0,5.0,72,0.00,,,0.00,Wunderground v.1.15,2013-08-16 22:03:00,
2013-08-16 18:08:00,72.3,62.8,30.02,SSW,203,3.0,4.0,72,0.00,,,0.00,Wunderground v.1.15,2013-08-16 22:08:00,
2013-08-16 18:13:00,72.4,62.5,30.02,South,172,4.0,6.0,71,0.00,,,0.00,Wunderground v.1.15,2013-08-16 22:13:00,
2013-08-16 18:18:00,72.4,62.9,30.02,South,179,3.0,5.0,72,0.00,,,0.00,Wunderground v.1.15,2013-08-16 22:18:00,
2013-08-16 18:23:00,72.7,63.5,30.01,SW,214,2.0,5.0,73,0.00,,,0.00,Wunderground v.1.15,2013-08-16 22:23:00,
2013-08-16 18:28:00,72.6,63.8,30.02,SW,233,2.0,5.0,74,0.00,,,0.00,Wunderground v.1.15,2013-08-16 22:28:00,
2013-08-16 18:33:00,72.2,64.2,30.02,WSW,252,3.0,6.0,76,0.00,,,0.00,Wunderground v.1.15,2013-08-16 22:33:00,
2013-08-16 18:38:00,71.7,63.7,30.02,WSW,240,4.0,4.0,76,0.00,,,0.00,Wunderground v.1.15,2013-08-16 22:38:00,
2013-08-16 18:43:00,71.6,64.0,30.02,West,266,3.0,4.0,77,0.00,,,0.00,Wunderground v.1.15,2013-08-16 22:43:00,
2013-08-16 18:48:00,71.4,64.2,30.02,West,262,3.0,4.0,78,0.00,,,0.00,Wunderground v.1.15,2013-08-16 22:48:00,
2013-08-16 18:53:00,71.3,64.4,30.02,WSW,241,2.0,5.0,79,0.00,,,0.00,Wunderground v.1.15,2013-08-16 22:53:00,
2013-08-16 18:58:00,71.2,64.0,30.02,SW,218,3.0,5.0,78,0.00,,,0.00,Wunderground v.1.15,2013-08-16 22:58:00,
2013-08-16 19:03:00,71.1,64.3,30.02,SW,236,3.0,5.0,79,0.00,,,0.00,Wunderground v.1.15,2013-08-16 23:03:00,
2013-08-16 19:08:00,71.0,64.2,30.02,SW,236,3.0,4.0,79,0.00,,,0.00,Wunderground v.1.15,2013-08-16 23:08:00,
2013-08-16 19:13:00,70.9,64.1,30.02,SW,214,2.0,5.0,79,0.00,,,0.00,Wunderground v.1.15,2013-08-16 23:13:00,
2013-08-16 19:18:00,70.9,64.4,30.02,WSW,238,3.0,4.0,80,0.00,,,0.00,Wunderground v.1.15,2013-08-16 23:18:00,
2013-08-16 19:23:00,70.9,64.4,30.02,SW,222,5.0,5.0,80,0.00,,,0.00,Wunderground v.1.15,2013-08-16 23:23:00,
2013-08-16 19:28:00,70.8,64.3,30.02,SW,223,1.0,3.0,80,0.00,,,0.00,Wunderground v.1.15,2013-08-16 23:28:00,
2013-08-16 19:33:00,70.7,64.2,30.02,SW,225,2.0,6.0,80,0.00,,,0.00,Wunderground v.1.15,2013-08-16 23:33:00,
2013-08-16 19:38:00,70.5,64.4,30.02,WSW,238,4.0,5.0,81,0.00,,,0.00,Wunderground v.1.15,2013-08-16 23:38:00,
2013-08-16 19:43:00,70.3,64.2,30.02,SW,226,3.0,5.0,81,0.00,,,0.00,Wunderground v.1.15,2013-08-16 23:43:00,
2013-08-16 19:48:00,70.2,64.1,30.03,SW,229,3.0,5.0,81,0.00,,,0.00,Wunderground v.1.15,2013-08-16 23:48:00,
2013-08-16 19:53:00,70.1,64.0,30.03,South,187,2.0,5.0,81,0.00,,,0.00,Wunderground v.1.15,2013-08-16 23:53:00,
2013-08-16 19:58:00,70.1,64.3,30.03,SSW,202,1.0,3.0,82,0.00,,,0.00,Wunderground v.1.15,2013-08-16 23:58:00,
2013-08-16 20:03:00,70.1,64.3,30.03,SSW,208,2.0,4.0,82,0.00,,,0.00,Wunderground v.1.15,2013-08-17 00:03:00,
2013-08-16 20:08:00,69.9,64.2,30.03,SSW,210,2.0,4.0,82,0.00,,,0.00,Wunderground v.1.15,2013-08-17 00:08:00,
2013-08-16 20:13:00,69.8,64.1,30.04,SW,215,1.0,5.0,82,0.00,,,0.00,Wunderground v.1.15,2013-08-17 00:13:00,
2013-08-16 20:18:00,69.8,64.1,30.04,SSW,195,1.0,4.0,82,0.00,,,0.00,Wunderground v.1.15,2013-08-17 00:18:00,
2013-08-16 20:23:00,69.8,64.4,30.04,SSW,210,3.0,4.0,83,0.00,,,0.00,Wunderground v.1.15,2013-08-17 00:23:00,
2013-08-16 20:28:00,69.7,64.3,30.04,SW,218,4.0,5.0,83,0.00,,,0.00,Wunderground v.1.15,2013-08-17 00:28:00,
2013-08-16 20:33:00,69.6,64.2,30.04,SW,214,3.0,5.0,83,0.00,,,0.00,Wunderground v.1.15,2013-08-17 00:33:00,
2013-08-16 20:38:00,69.5,64.5,30.04,SW,226,2.0,4.0,84,0.00,,,0.00,Wunderground v.1.15,2013-08-17 00:38:00,
2013-08-16 20:43:00,69.4,64.7,30.04,SW,214,3.0,4.0,85,0.00,,,0.00,Wunderground v.1.15,2013-08-17 00:43:00,
2013-08-16 20:48:00,69.2,64.5,30.04,SW,229,2.0,5.0,85,0.00,,,0.00,Wunderground v.1.15,2013-08-17 00:48:00,
2013-08-16 20:53:00,69.2,64.5,30.04,SW,236,2.0,5.0,85,0.00,,,0.00,Wunderground v.1.15,2013-08-17 00:53:00,
2013-08-16 20:58:00,69.2,64.5,30.05,SSW,207,3.0,3.0,85,0.00,,,0.00,Wunderground v.1.15,2013-08-17 00:58:00,
2013-08-16 21:03:00,69.0,64.3,30.05,SW,234,2.0,4.0,85,0.00,,,0.00,Wunderground v.1.15,2013-08-17 01:03:00,
2013-08-16 21:08:00,69.0,64.3,30.05,SSW,203,2.0,4.0,85,0.00,,,0.00,Wunderground v.1.15,2013-08-17 01:08:00,
2013-08-16 21:13:00,68.9,64.2,30.05,South,188,3.0,5.0,85,0.00,,,0.00,Wunderground v.1.15,2013-08-17 01:13:00,
2013-08-16 21:18:00,68.9,64.2,30.05,SSW,212,2.0,4.0,85,0.00,,,0.00,Wunderground v.1.15,2013-08-17 01:18:00,
2013-08-16 21:23:00,68.8,64.1,30.05,SSW,196,2.0,4.0,85,0.00,,,0.00,Wunderground v.1.15,2013-08-17 01:23:00,
2013-08-16 21:28:00,68.7,64.0,30.05,South,181,2.0,3.0,85,0.00,,,0.00,Wunderground v.1.15,2013-08-17 01:28:00,
2013-08-16 21:33:00,68.6,64.2,30.05,SSW,203,1.0,3.0,86,0.00,,,0.00,Wunderground v.1.15,2013-08-17 01:33:00,
2013-08-16 21:38:00,68.6,64.2,30.05,South,176,2.0,2.0,86,0.00,,,0.00,Wunderground v.1.15,2013-08-17 01:38:00,
2013-08-16 21:43:00,68.6,63.9,30.06,South,181,1.0,3.0,85,0.00,,,0.00,Wunderground v.1.15,2013-08-17 01:43:00,
2013-08-16 21:48:00,68.5,64.1,30.06,SSE,167,2.0,4.0,86,0.00,,,0.00,Wunderground v.1.15,2013-08-17 01:48:00,
2013-08-16 21:53:00,68.5,64.1,30.06,SSW,198,1.0,4.0,86,0.00,,,0.00,Wunderground v.1.15,2013-08-17 01:53:00,
2013-08-16 21:58:00,68.4,64.0,30.06,SSE,158,1.0,4.0,86,0.00,,,0.00,Wunderground v.1.15,2013-08-17 01:58:00,
2013-08-16 22:03:00,68.3,64.3,30.06,SSW,203,2.0,4.0,87,0.00,,,0.00,Wunderground v.1.15,2013-08-17 02:03:00,
2013-08-16 22:08:00,68.3,64.3,30.07,South,184,3.0,3.0,87,0.00,,,0.00,Wunderground v.1.15,2013-08-17 02:08:00,
2013-08-16 22:13:00,68.3,64.3,30.07,SW,217,1.0,4.0,87,0.00,,,0.00,Wunderground v.1.15,2013-08-17 02:13:00,
2013-08-16 22:18:00,68.3,63.9,30.07,SW,227,2.0,3.0,86,0.00,,,0.00,Wunderground v.1.15,2013-08-17 02:18:00,
2013-08-16 22:23:00,68.3,63.9,30.07,SSW,203,4.0,6.0,86,0.00,,,0.00,Wunderground v.1.15,2013-08-17 02:23:00,
2013-08-16 22:28:00,68.3,63.9,30.07,SSW,203,3.0,3.0,86,0.00,,,0.00,Wunderground v.1.15,2013-08-17 02:28:00,
2013-08-16 22:33:00,68.3,64.3,30.07,South,189,2.0,4.0,87,0.00,,,0.00,Wunderground v.1.15,2013-08-17 02:33:00,
2013-08-16 22:38:00,68.2,64.2,30.07,South,173,1.0,3.0,87,0.00,,,0.00,Wunderground v.1.15,2013-08-17 02:38:00,
2013-08-16 22:43:00,68.1,64.1,30.07,SSW,205,2.0,3.0,87,0.00,,,0.00,Wunderground v.1.15,2013-08-17 02:43:00,
2013-08-16 22:48:00,68.1,64.1,30.07,SSW,195,1.0,4.0,87,0.00,,,0.00,Wunderground v.1.15,2013-08-17 02:48:00,
2013-08-16 22:53:00,68.0,64.3,30.07,SSW,212,0.0,4.0,88,0.00,,,0.00,Wunderground v.1.15,2013-08-17 02:53:00,
2013-08-16 22:58:00,68.0,64.0,30.07,SW,229,1.0,3.0,87,0.00,,,0.00,Wunderground v.1.15,2013-08-17 02:58:00,
2013-08-16 23:03:00,68.1,63.8,30.06,SW,223,3.0,4.0,86,0.00,,,0.00,Wunderground v.1.15,2013-08-17 03:03:00,
2013-08-16 23:08:00,68.1,63.8,30.07,SW,230,2.0,3.0,86,0.00,,,0.00,Wunderground v.1.15,2013-08-17 03:08:00,
2013-08-16 23:13:00,68.1,63.4,30.07,SW,233,2.0,3.0,85,0.00,,,0.00,Wunderground v.1.15,2013-08-17 03:13:00,
2013-08-16 23:18:00,68.1,63.8,30.07,SW,222,1.0,3.0,86,0.00,,,0.00,Wunderground v.1.15,2013-08-17 03:18:00,
2013-08-16 23:23:00,68.0,63.7,30.07,SW,227,2.0,3.0,86,0.00,,,0.00,Wunderground v.1.15,2013-08-17 03:23:00,
2013-08-16 23:28:00,68.0,63.7,30.07,SW,217,2.0,3.0,86,0.00,,,0.00,Wunderground v.1.15,2013-08-17 03:28:00,
2013-08-16 23:33:00,67.9,63.9,30.07,SW,219,1.0,3.0,87,0.00,,,0.00,Wunderground v.1.15,2013-08-17 03:33:00,
2013-08-16 23:38:00,67.9,63.6,30.07,SSW,200,3.0,3.0,86,0.00,,,0.00,Wunderground v.1.15,2013-08-17 03:38:00,
2013-08-16 23:43:00,67.9,63.9,30.07,South,183,1.0,3.0,87,0.00,,,0.00,Wunderground v.1.15,2013-08-17 03:43:00,
2013-08-16 23:48:00,67.9,63.9,30.07,SSW,193,1.0,2.0,87,0.00,,,0.00,Wunderground v.1.15,2013-08-17 03:48:00,
2013-08-16 23:53:00,67.8,63.8,30.06,South,184,1.0,2.0,87,0.00,,,0.00,Wunderground v.1.15,2013-08-17 03:53:00,
2013-08-16 23:59:00,67.7,63.7,30.06,SSW,212,1.0,2.0,87,0.00,,,0.00,Wunderground v.1.15,2013-08-17 03:59:00,